Time;durP1;ratioP1;P1;durP2;ratioP2;P2;SDS_P1;SDS_P2;PMS_P1;PMS_P2;Temp;Humidity;BMP_temperature;BMP_pressure;BME280_temperature;BME280_humidity;BME280_pressure;Samples;Min_cycle;Max_cycle;Signal;HPM_P1;HPM_P2
2023/01/22 00:02:04;;;;;;;16.10;10.70;;;-1.20;99.90;;;;;;5047722;28;20052;-62
2023/01/22 00:04:30;;;;;;;19.52;11.43;;;-1.60;99.90;;;;;;5049958;28;20077;-62
2023/01/22 00:06:56;;;;;;;18.83;11.52;;;-1.50;99.90;;;;;;5047413;28;20107;-62
2023/01/22 00:09:21;;;;;;;18.75;11.43;;;-1.40;99.90;;;;;;5048129;28;20106;-63
2023/01/22 00:11:50;;;;;;;18.52;10.32;;;-1.30;99.90;;;;;;5045728;28;20072;-61
2023/01/22 00:14:16;;;;;;;17.00;10.80;;;-1.30;99.90;;;;;;5048685;28;20202;-61
2023/01/22 00:16:42;;;;;;;14.65;10.27;;;-1.20;99.90;;;;;;5047742;28;20060;-62
2023/01/22 00:19:08;;;;;;;16.17;10.80;;;-1.00;99.90;;;;;;5046846;28;20049;-63
2023/01/22 00:21:34;;;;;;;19.90;10.57;;;-1.20;99.90;;;;;;5048872;28;20567;-62
2023/01/22 00:24:01;;;;;;;17.27;11.10;;;-1.10;99.90;;;;;;5046160;28;20071;-63
2023/01/22 00:26:26;;;;;;;19.35;10.60;;;-1.10;99.90;;;;;;5048068;28;20045;-61
2023/01/22 00:28:52;;;;;;;17.25;10.40;;;-1.10;99.90;;;;;;5047411;28;20037;-63
2023/01/22 00:31:18;;;;;;;18.48;10.15;;;-1.10;99.90;;;;;;5047806;28;20040;-65
2023/01/22 00:33:45;;;;;;;15.73;10.23;;;-1.10;99.90;;;;;;5046681;28;20088;-64
2023/01/22 00:36:15;;;;;;;14.20;9.68;;;-1.00;99.90;;;;;;5046620;28;20480;-64
2023/01/22 00:38:41;;;;;;;16.88;10.38;;;-1.00;99.90;;;;;;5048798;28;20047;-62
2023/01/22 00:41:08;;;;;;;14.73;9.73;;;-1.00;99.90;;;;;;5047148;28;20068;-63
2023/01/22 00:43:37;;;;;;;18.20;10.18;;;-1.00;99.90;;;;;;5048558;28;20113;-62
2023/01/22 00:46:04;;;;;;;16.38;9.75;;;-1.00;99.90;;;;;;5047163;28;20520;-64
2023/01/22 00:48:30;;;;;;;15.38;9.48;;;-0.90;99.90;;;;;;5048221;28;20075;-63
2023/01/22 00:50:56;;;;;;;17.38;10.27;;;-0.90;99.90;;;;;;5047046;28;20048;-64
2023/01/22 00:53:22;;;;;;;14.25;9.65;;;-1.00;99.90;;;;;;5049097;28;20049;-64
2023/01/22 00:55:56;;;;;;;16.73;10.45;;;-1.00;99.90;;;;;;5049486;28;20099;-62
2023/01/22 00:58:22;;;;;;;15.95;10.25;;;-1.00;99.90;;;;;;5048024;28;20553;-61
2023/01/22 01:00:48;;;;;;;15.40;10.13;;;-1.00;99.90;;;;;;5050069;28;20049;-63
2023/01/22 01:03:26;;;;;;;14.98;9.43;;;-1.00;99.90;;;;;;5048386;28;20066;-62
2023/01/22 01:05:56;;;;;;;17.38;10.43;;;-1.00;99.90;;;;;;5045059;28;20049;-62
2023/01/22 01:08:23;;;;;;;15.63;9.38;;;-1.00;99.90;;;;;;5047609;28;20064;-63
2023/01/22 01:10:53;;;;;;;16.27;9.82;;;-1.00;99.90;;;;;;5047953;28;20075;-63
2023/01/22 01:13:18;;;;;;;14.23;9.70;;;-1.10;99.90;;;;;;5048275;28;20044;-63
2023/01/22 01:15:44;;;;;;;16.85;9.68;;;-1.00;99.90;;;;;;5046963;28;20109;-62
2023/01/22 01:18:11;;;;;;;13.93;8.80;;;-1.00;99.90;;;;;;5047281;28;20045;-63
2023/01/22 01:20:38;;;;;;;15.13;9.15;;;-1.00;99.90;;;;;;5047644;28;20511;-62
2023/01/22 01:23:03;;;;;;;15.80;9.88;;;-0.70;99.90;;;;;;5045547;28;20060;-63
2023/01/22 01:25:29;;;;;;;13.57;9.27;;;-1.30;99.90;;;;;;5045150;28;20049;-63
2023/01/22 01:27:55;;;;;;;14.45;9.02;;;-1.10;99.90;;;;;;5044652;28;20061;-63
2023/01/22 01:30:20;;;;;;;16.02;9.93;;;-1.60;99.90;;;;;;5046872;28;20048;-62
2023/01/22 01:32:46;;;;;;;17.73;9.13;;;-1.10;99.90;;;;;;5046978;28;20102;-62
2023/01/22 01:35:12;;;;;;;15.73;9.20;;;-1.10;99.90;;;;;;5047518;28;20084;-61
2023/01/22 01:37:37;;;;;;;16.48;9.55;;;-1.10;99.90;;;;;;5044684;28;20452;-63
2023/01/22 01:40:03;;;;;;;17.33;9.55;;;-1.10;99.90;;;;;;5046878;28;21239;-63
2023/01/22 01:42:32;;;;;;;14.45;9.75;;;-1.10;99.90;;;;;;5049991;28;20041;-63
2023/01/22 01:45:18;;;;;;;14.77;9.20;;;1.00;99.90;;;;;;5047918;28;20421;-63
2023/01/22 01:47:46;;;;;;;13.45;8.77;;;-1.10;99.90;;;;;;5045161;28;20056;-62
2023/01/22 01:50:12;;;;;;;15.15;8.50;;;-1.10;99.90;;;;;;5050347;28;20118;-62
2023/01/22 01:52:38;;;;;;;17.15;9.75;;;-1.10;99.90;;;;;;5049922;28;20049;-63
2023/01/22 01:55:05;;;;;;;14.50;9.45;;;-1.00;99.90;;;;;;5051295;28;20052;-63
2023/01/22 01:57:33;;;;;;;17.48;10.10;;;-1.60;99.90;;;;;;5051183;28;20043;-62
2023/01/22 02:00:00;;;;;;;18.67;10.05;;;-1.10;99.90;;;;;;5049909;28;20045;-62
2023/01/22 02:02:26;;;;;;;18.65;10.60;;;-1.10;99.90;;;;;;5048688;28;20614;-63
2023/01/22 02:04:52;;;;;;;16.95;10.40;;;-1.10;99.90;;;;;;5049657;28;20053;-62
2023/01/22 02:07:19;;;;;;;16.85;10.45;;;-1.10;99.90;;;;;;5050121;28;20344;-61
2023/01/22 02:09:45;;;;;;;21.33;10.93;;;-1.00;99.90;;;;;;5051717;28;20130;-62
2023/01/22 02:12:10;;;;;;;21.33;11.88;;;-1.00;99.90;;;;;;5051362;28;20062;-62
2023/01/22 02:14:43;;;;;;;19.90;12.00;;;-1.10;99.90;;;;;;5051056;28;20156;-63
2023/01/22 02:17:26;;;;;;;19.30;10.45;;;-1.10;99.90;;;;;;5045948;28;20037;-63
2023/01/22 02:19:52;;;;;;;20.50;11.07;;;-1.10;99.90;;;;;;5049315;28;20056;-63
2023/01/22 02:22:26;;;;;;;23.10;11.98;;;-1.10;99.90;;;;;;5049447;28;20057;-63
2023/01/22 02:24:52;;;;;;;18.92;11.20;;;-1.10;99.90;;;;;;5049957;28;20168;-64
2023/01/22 02:27:17;;;;;;;23.02;13.18;;;-1.10;99.90;;;;;;5049137;28;20084;-63
2023/01/22 02:29:43;;;;;;;19.20;12.15;;;-1.10;99.90;;;;;;5050966;28;20044;-62
2023/01/22 02:32:09;;;;;;;21.60;11.45;;;-1.20;99.90;;;;;;5046891;28;20045;-63
2023/01/22 02:34:35;;;;;;;21.92;12.93;;;-1.20;99.90;;;;;;5051632;28;20036;-62
2023/01/22 02:37:01;;;;;;;23.05;11.60;;;-1.20;99.90;;;;;;5047319;28;20090;-62
2023/01/22 02:39:27;;;;;;;22.63;11.95;;;-1.20;99.90;;;;;;5049484;28;20040;-62
2023/01/22 02:41:53;;;;;;;22.20;12.63;;;-1.20;99.90;;;;;;5047843;28;20105;-62
2023/01/22 02:44:18;;;;;;;21.38;12.65;;;-1.20;99.90;;;;;;5049006;28;20048;-63
2023/01/22 02:46:44;;;;;;;22.92;12.65;;;-1.20;99.90;;;;;;5049174;28;20074;-62
2023/01/22 02:49:10;;;;;;;24.65;13.57;;;-1.20;99.90;;;;;;5046807;28;20045;-64
2023/01/22 02:51:35;;;;;;;23.58;13.02;;;-1.20;99.90;;;;;;5049255;28;20041;-62
2023/01/22 02:54:01;;;;;;;20.80;12.75;;;-1.30;99.90;;;;;;5049665;28;20084;-62
2023/01/22 02:56:27;;;;;;;23.98;13.15;;;-1.30;99.90;;;;;;5050134;28;20071;-62
2023/01/22 02:58:52;;;;;;;24.98;12.60;;;-1.30;99.90;;;;;;5049316;28;20064;-61
2023/01/22 03:01:23;;;;;;;21.52;12.70;;;-1.30;99.90;;;;;;5050335;28;20101;-62
2023/01/22 03:03:55;;;;;;;23.10;13.00;;;-1.30;99.90;;;;;;5050382;28;20091;-62
2023/01/22 03:06:24;;;;;;;26.73;13.07;;;-1.30;99.90;;;;;;5048511;28;20083;-62
2023/01/22 03:08:55;;;;;;;19.98;12.75;;;-1.30;99.90;;;;;;5050887;28;20067;-62
2023/01/22 03:11:22;;;;;;;27.08;13.05;;;-1.30;99.90;;;;;;5030455;28;20049;-62
2023/01/22 03:22:03;;;;;;;23.98;12.15;;;-1.10;99.90;;;;;;5051996;28;20049;-61
2023/01/22 03:24:29;;;;;;;24.67;13.07;;;-0.80;99.90;;;;;;5049529;28;20064;-63
2023/01/22 03:26:54;;;;;;;23.02;12.32;;;-1.00;99.90;;;;;;5045704;28;20075;-64
2023/01/22 03:29:20;;;;;;;22.00;12.05;;;-0.90;99.90;;;;;;5047248;28;20060;-62
2023/01/22 03:31:47;;;;;;;21.50;12.70;;;-0.80;99.90;;;;;;5047987;28;20052;-63
2023/01/22 03:34:17;;;;;;;24.38;12.70;;;-0.80;99.90;;;;;;5049635;28;20076;-63
2023/01/22 03:36:43;;;;;;;21.20;12.63;;;-0.80;99.90;;;;;;5048393;28;20097;-61
2023/01/22 03:39:09;;;;;;;22.33;12.00;;;-0.70;99.90;;;;;;5046251;28;20064;-62
2023/01/22 03:41:35;;;;;;;25.58;12.88;;;-0.70;99.90;;;;;;5044417;28;20508;-62
2023/01/22 03:44:02;;;;;;;21.88;11.90;;;-0.60;99.90;;;;;;5029212;28;20101;-64
2023/01/22 03:46:29;;;;;;;23.90;12.13;;;-0.60;99.90;;;;;;5013010;28;20064;-63
2023/01/22 03:48:55;;;;;;;22.83;12.27;;;-0.60;99.90;;;;;;5011289;28;20446;-62
2023/01/22 03:51:21;;;;;;;22.52;11.85;;;-0.50;99.90;;;;;;5013807;28;20041;-64
2023/01/22 03:53:47;;;;;;;18.38;11.43;;;-0.50;99.90;;;;;;5006589;28;20075;-63
2023/01/22 03:56:19;;;;;;;24.73;12.10;;;-0.50;99.90;;;;;;5015851;28;20053;-62
2023/01/22 03:58:45;;;;;;;20.05;11.55;;;-0.40;99.90;;;;;;5045124;28;20417;-63
2023/01/22 04:01:22;;;;;;;18.70;11.25;;;-0.40;99.90;;;;;;5045619;28;20914;-63
2023/01/22 04:03:48;;;;;;;20.50;10.70;;;-0.40;99.90;;;;;;5049118;28;20449;-62
2023/01/22 04:06:14;;;;;;;19.10;10.98;;;-0.40;99.90;;;;;;5046519;28;20102;-63
2023/01/22 04:08:42;;;;;;;17.02;10.27;;;-0.30;99.90;;;;;;5048958;28;20048;-62
2023/01/22 04:11:08;;;;;;;17.90;10.77;;;-0.20;99.90;;;;;;5044366;28;20049;-62
2023/01/22 04:13:35;;;;;;;20.30;10.77;;;-0.20;99.90;;;;;;5048116;28;20041;-63
2023/01/22 04:16:01;;;;;;;17.90;10.80;;;-0.20;99.90;;;;;;5044422;28;20103;-63
2023/01/22 04:18:27;;;;;;;16.92;10.77;;;-0.20;99.90;;;;;;5047702;28;20099;-63
2023/01/22 04:20:53;;;;;;;16.10;9.73;;;-0.20;99.90;;;;;;5047635;28;20033;-63
2023/01/22 04:23:20;;;;;;;15.20;9.90;;;0.10;99.90;;;;;;5045820;28;20057;-63
2023/01/22 04:25:47;;;;;;;16.92;10.23;;;-0.20;99.90;;;;;;5028700;28;20136;-62
2023/01/22 04:28:14;;;;;;;14.85;8.95;;;-0.10;99.90;;;;;;5044540;28;20073;-63
2023/01/22 04:30:41;;;;;;;14.98;8.90;;;1.20;99.90;;;;;;5047709;28;20049;-62
2023/01/22 04:33:07;;;;;;;17.48;8.95;;;0.00;99.90;;;;;;5044874;28;20105;-61
2023/01/22 04:35:34;;;;;;;11.00;7.47;;;0.00;99.90;;;;;;5044288;28;20044;-62
2023/01/22 04:38:00;;;;;;;13.57;8.25;;;0.00;99.90;;;;;;5045880;28;20063;-64
2023/01/22 04:40:26;;;;;;;11.90;8.43;;;0.00;99.90;;;;;;5045526;28;20500;-63
2023/01/22 04:42:51;;;;;;;14.60;8.35;;;-1.20;99.90;;;;;;5046186;28;20049;-63
2023/01/22 04:45:17;;;;;;;11.07;7.80;;;0.10;99.90;;;;;;5046722;28;20037;-62
2023/01/22 04:47:44;;;;;;;12.02;8.15;;;0.10;99.90;;;;;;5047744;28;20100;-62
2023/01/22 04:50:22;;;;;;;12.65;7.88;;;0.10;99.90;;;;;;5047827;28;20037;-62
2023/01/22 04:52:50;;;;;;;13.50;8.15;;;0.10;99.90;;;;;;5048558;28;20097;-62
2023/01/22 04:55:16;;;;;;;12.50;7.72;;;0.10;99.90;;;;;;5047531;28;20055;-62
2023/01/22 04:57:42;;;;;;;11.40;7.55;;;0.10;99.90;;;;;;5047593;28;20037;-63
2023/01/22 05:00:11;;;;;;;13.90;8.07;;;0.10;99.90;;;;;;5046724;28;20049;-63
2023/01/22 05:02:37;;;;;;;12.98;8.38;;;0.10;99.90;;;;;;5045252;28;20052;-63
2023/01/22 05:05:07;;;;;;;13.65;7.05;;;0.10;99.90;;;;;;5031198;28;20109;-63
2023/01/22 05:07:33;;;;;;;13.90;7.80;;;0.10;99.90;;;;;;5047496;28;20040;-62
2023/01/22 05:09:59;;;;;;;11.20;7.32;;;0.10;99.90;;;;;;5047506;28;20045;-62
2023/01/22 05:12:26;;;;;;;11.13;7.38;;;0.30;99.90;;;;;;5047866;28;20611;-63
2023/01/22 05:14:51;;;;;;;11.10;6.60;;;0.20;99.90;;;;;;5049774;28;20056;-62
2023/01/22 05:17:17;;;;;;;11.23;6.97;;;0.10;99.90;;;;;;5044926;28;20033;-62
2023/01/22 05:19:43;;;;;;;9.63;6.90;;;0.40;99.90;;;;;;5042947;28;20110;-62
2023/01/22 05:22:09;;;;;;;10.25;6.72;;;0.20;99.90;;;;;;5042222;28;20044;-63
2023/01/22 05:24:34;;;;;;;9.55;6.32;;;0.20;99.90;;;;;;5048709;28;20102;-63
2023/01/22 05:27:00;;;;;;;9.55;7.00;;;0.20;99.90;;;;;;5051842;28;20092;-63
2023/01/22 05:29:26;;;;;;;11.07;6.47;;;0.20;99.90;;;;;;5034928;28;20049;-63
2023/01/22 05:31:52;;;;;;;8.23;5.93;;;0.20;99.90;;;;;;5051627;28;20060;-63
2023/01/22 05:34:18;;;;;;;10.13;6.82;;;0.20;99.90;;;;;;5050347;28;20053;-63
2023/01/22 05:36:44;;;;;;;11.85;7.07;;;0.20;99.90;;;;;;5050746;28;20435;-63
2023/01/22 05:39:10;;;;;;;12.32;6.47;;;0.20;99.90;;;;;;5052929;28;20118;-61
2023/01/22 05:41:35;;;;;;;10.10;6.78;;;0.20;99.90;;;;;;5051320;28;20103;-63
2023/01/22 05:44:02;;;;;;;9.48;6.25;;;0.20;99.90;;;;;;5052551;28;20092;-62
2023/01/22 05:46:28;;;;;;;13.63;7.07;;;0.20;99.90;;;;;;5052146;28;20041;-63
2023/01/22 05:48:55;;;;;;;10.90;6.60;;;0.30;99.90;;;;;;5047818;28;20214;-63
2023/01/22 05:51:21;;;;;;;9.43;6.32;;;0.30;99.90;;;;;;5052576;28;20041;-62
2023/01/22 05:53:46;;;;;;;11.65;6.85;;;0.30;99.90;;;;;;5046941;28;20074;-62
2023/01/22 05:56:12;;;;;;;10.80;6.38;;;0.30;99.90;;;;;;5049711;28;20079;-64
2023/01/22 05:58:38;;;;;;;9.23;6.53;;;0.30;99.90;;;;;;5050185;28;20033;-62
2023/01/22 06:01:04;;;;;;;10.38;6.03;;;0.30;99.90;;;;;;5050978;28;20046;-63
2023/01/22 06:03:29;;;;;;;10.25;6.50;;;0.30;99.90;;;;;;5051055;28;20060;-62
2023/01/22 06:06:02;;;;;;;7.97;5.97;;;0.30;99.90;;;;;;5050775;28;20040;-62
2023/01/22 06:08:28;;;;;;;11.82;6.95;;;0.30;99.90;;;;;;5050821;28;20049;-62
2023/01/22 06:11:01;;;;;;;10.75;6.47;;;0.30;99.90;;;;;;5050655;28;20070;-65
2023/01/22 06:13:27;;;;;;;8.00;6.18;;;0.30;99.90;;;;;;5052068;28;20051;-63
2023/01/22 06:15:54;;;;;;;8.95;6.45;;;0.30;99.90;;;;;;5048573;28;20045;-63
2023/01/22 06:18:21;;;;;;;9.45;6.60;;;0.30;99.90;;;;;;5051441;28;20057;-63
2023/01/22 06:20:46;;;;;;;11.90;6.93;;;0.30;99.90;;;;;;5050765;28;20499;-63
2023/01/22 06:23:13;;;;;;;10.55;6.95;;;0.50;99.90;;;;;;5048447;28;20048;-62
2023/01/22 06:25:39;;;;;;;13.13;6.55;;;0.30;99.90;;;;;;5050196;28;20037;-62
2023/01/22 06:28:04;;;;;;;10.10;6.78;;;0.30;99.90;;;;;;5048371;28;20076;-64
2023/01/22 06:30:30;;;;;;;9.75;6.18;;;0.30;99.90;;;;;;5049675;28;20025;-62
2023/01/22 06:32:56;;;;;;;9.95;6.75;;;0.20;99.90;;;;;;5049658;28;20053;-63
2023/01/22 06:35:22;;;;;;;9.23;6.22;;;0.30;99.90;;;;;;5051340;28;20037;-64
2023/01/22 06:37:48;;;;;;;9.05;6.18;;;0.30;99.90;;;;;;5049615;28;20033;-62
2023/01/22 06:40:13;;;;;;;11.13;6.97;;;0.20;99.90;;;;;;5048160;28;20509;-62
2023/01/22 06:42:39;;;;;;;12.18;6.72;;;0.30;99.90;;;;;;5047722;28;20037;-64
2023/01/22 06:45:06;;;;;;;9.38;6.50;;;0.30;99.90;;;;;;5045040;28;20076;-63
2023/01/22 06:47:31;;;;;;;13.73;6.57;;;0.30;99.90;;;;;;5047084;28;20060;-61
2023/01/22 06:49:57;;;;;;;11.38;6.78;;;0.30;99.90;;;;;;5047742;28;20065;-63
2023/01/22 06:52:23;;;;;;;13.05;6.80;;;0.20;99.90;;;;;;5049965;28;20043;-63
2023/01/22 06:54:48;;;;;;;12.10;6.63;;;0.30;99.90;;;;;;5051215;28;20156;-63
2023/01/22 06:57:14;;;;;;;10.05;7.05;;;0.30;99.90;;;;;;5048446;28;20047;-63
2023/01/22 06:59:40;;;;;;;14.20;6.72;;;0.30;99.90;;;;;;5049431;28;20136;-63
2023/01/22 07:02:05;;;;;;;10.57;6.18;;;0.30;99.90;;;;;;4999512;28;20053;-63
2023/01/22 07:04:31;;;;;;;9.68;6.45;;;0.30;99.90;;;;;;5050471;28;20141;-62
2023/01/22 07:06:57;;;;;;;12.05;7.82;;;0.20;99.90;;;;;;5048715;28;20059;-62
2023/01/22 07:09:23;;;;;;;10.65;7.05;;;0.20;99.90;;;;;;5052207;28;20045;-63
2023/01/22 07:11:48;;;;;;;10.48;6.68;;;0.20;99.90;;;;;;5049537;28;20107;-62
2023/01/22 07:14:14;;;;;;;9.23;6.40;;;0.20;99.90;;;;;;5048347;28;20041;-62
2023/01/22 07:16:40;;;;;;;9.18;6.65;;;0.20;99.90;;;;;;5051160;28;20041;-62
2023/01/22 07:19:05;;;;;;;9.45;6.68;;;1.20;99.90;;;;;;5032157;28;20052;-62
2023/01/22 07:21:31;;;;;;;12.65;7.28;;;0.20;99.90;;;;;;5049506;28;20532;-62
2023/01/22 07:23:57;;;;;;;10.38;6.68;;;0.20;99.90;;;;;;5049259;28;20659;-62
2023/01/22 07:26:22;;;;;;;9.68;6.90;;;0.20;99.90;;;;;;5048862;28;20060;-61
2023/01/22 07:28:48;;;;;;;10.75;6.97;;;0.50;99.90;;;;;;5047877;28;20057;-62
2023/01/22 07:31:14;;;;;;;12.18;7.25;;;0.20;99.90;;;;;;5049406;28;20520;-62
2023/01/22 07:33:40;;;;;;;8.80;6.30;;;0.40;99.90;;;;;;5048302;28;20056;-62
2023/01/22 07:36:06;;;;;;;10.38;7.22;;;0.20;99.90;;;;;;5049166;28;20041;-62
2023/01/22 07:38:32;;;;;;;13.20;7.63;;;0.20;99.90;;;;;;5048027;28;20044;-61
2023/01/22 07:41:07;;;;;;;10.75;7.25;;;0.20;99.90;;;;;;5047665;28;20520;-62
2023/01/22 07:43:32;;;;;;;12.07;7.10;;;0.80;99.90;;;;;;5047556;28;20056;-62
2023/01/22 07:46:02;;;;;;;10.30;7.35;;;0.20;99.90;;;;;;5049875;28;20044;-61
2023/01/22 07:48:29;;;;;;;12.65;7.80;;;0.40;99.90;;;;;;5049406;28;20049;-62
2023/01/22 07:50:58;;;;;;;12.50;7.30;;;0.20;99.90;;;;;;5049078;28;20155;-58
2023/01/22 07:53:24;;;;;;;12.75;7.57;;;0.10;99.90;;;;;;5049424;28;20078;-61
2023/01/22 07:55:50;;;;;;;11.85;7.40;;;0.20;99.90;;;;;;5049296;28;20076;-64
2023/01/22 07:58:15;;;;;;;9.90;7.60;;;0.10;99.90;;;;;;5045289;28;20569;-63
2023/01/22 08:00:41;;;;;;;9.85;7.07;;;0.10;99.90;;;;;;5050060;28;20618;-62
2023/01/22 08:03:12;;;;;;;11.43;7.18;;;0.00;99.90;;;;;;5049318;28;20053;-61
2023/01/22 08:05:42;;;;;;;13.60;8.05;;;0.10;99.90;;;;;;5047804;28;20048;-61
2023/01/22 08:08:16;;;;;;;11.73;7.35;;;0.10;99.90;;;;;;5049020;28;20131;-62
2023/01/22 08:10:43;;;;;;;12.70;7.85;;;0.10;99.90;;;;;;5046611;28;20056;-65
2023/01/22 08:13:08;;;;;;;13.00;8.50;;;0.10;99.90;;;;;;5046192;28;20072;-62
2023/01/22 08:15:34;;;;;;;15.25;7.65;;;0.10;99.90;;;;;;5048294;28;20048;-63
2023/01/22 08:18:00;;;;;;;13.18;8.00;;;0.20;99.90;;;;;;5050082;28;20043;-62
2023/01/22 08:20:26;;;;;;;13.23;8.43;;;0.10;99.90;;;;;;5047866;28;20044;-62
2023/01/22 08:22:57;;;;;;;14.63;7.63;;;0.10;99.90;;;;;;5048620;28;20045;-64
2023/01/22 08:25:23;;;;;;;11.65;7.68;;;0.10;99.90;;;;;;5038617;28;20517;-62
2023/01/22 08:27:49;;;;;;;11.27;7.32;;;0.10;99.90;;;;;;5042864;28;20045;-64
2023/01/22 08:30:14;;;;;;;14.30;7.95;;;0.20;99.90;;;;;;5047699;28;20060;-62
2023/01/22 08:32:43;;;;;;;13.93;7.75;;;0.10;99.90;;;;;;5044504;28;20041;-61
2023/01/22 08:35:09;;;;;;;11.57;7.72;;;0.20;99.90;;;;;;5047108;28;20037;-62
2023/01/22 08:37:35;;;;;;;14.00;7.85;;;0.20;99.90;;;;;;5046229;28;20057;-61
2023/01/22 08:40:01;;;;;;;12.25;7.88;;;0.20;99.90;;;;;;5041031;28;20220;-62
2023/01/22 08:42:26;;;;;;;12.07;7.93;;;0.20;99.90;;;;;;5038459;28;20037;-61
2023/01/22 08:44:52;;;;;;;11.07;7.28;;;0.20;99.90;;;;;;5036518;28;20052;-62
2023/01/22 08:47:18;;;;;;;13.02;8.32;;;0.20;99.90;;;;;;5043441;28;20063;-61
2023/01/22 08:49:43;;;;;;;14.82;8.20;;;0.20;99.90;;;;;;5045345;28;20057;-61
2023/01/22 08:52:10;;;;;;;12.43;8.20;;;0.20;99.90;;;;;;5048932;28;20044;-61
2023/01/22 08:54:35;;;;;;;13.75;8.95;;;0.30;99.90;;;;;;5046663;28;20045;-61
2023/01/22 08:57:01;;;;;;;11.98;8.25;;;0.60;99.90;;;;;;5046795;28;20114;-62
2023/01/22 08:59:27;;;;;;;15.23;8.25;;;0.30;99.90;;;;;;5048390;28;20049;-62
2023/01/22 09:01:52;;;;;;;12.32;7.93;;;0.50;99.90;;;;;;5046097;28;20083;-62
2023/01/22 09:04:18;;;;;;;13.32;8.68;;;0.40;99.90;;;;;;5044953;28;20033;-62
2023/01/22 09:06:44;;;;;;;12.00;8.52;;;0.70;99.90;;;;;;5043566;28;20041;-61
2023/01/22 09:09:11;;;;;;;11.82;8.07;;;0.40;99.90;;;;;;5046486;28;20377;-62
2023/01/22 09:11:37;;;;;;;13.18;8.57;;;0.40;99.90;;;;;;5045890;28;20566;-62
2023/01/22 09:14:06;;;;;;;12.85;8.48;;;0.40;99.90;;;;;;5045652;28;20052;-62
2023/01/22 09:16:32;;;;;;;14.05;8.85;;;0.40;99.90;;;;;;5047331;28;20049;-62
2023/01/22 09:18:58;;;;;;;12.20;8.88;;;0.40;99.90;;;;;;5041787;28;20126;-62
2023/01/22 09:21:23;;;;;;;13.20;8.88;;;0.50;99.90;;;;;;5043958;28;20041;-61
2023/01/22 09:23:49;;;;;;;12.02;8.48;;;0.50;99.90;;;;;;5039311;28;20068;-61
2023/01/22 09:26:15;;;;;;;10.98;8.88;;;0.50;99.90;;;;;;5038986;28;20132;-61
2023/01/22 09:28:41;;;;;;;13.10;9.07;;;0.50;99.90;;;;;;5041949;28;20051;-61
2023/01/22 09:31:08;;;;;;;12.85;8.60;;;0.50;99.90;;;;;;5045940;28;20040;-61
2023/01/22 09:33:33;;;;;;;11.45;8.52;;;0.50;99.90;;;;;;5033355;28;20120;-61
2023/01/22 09:36:07;;;;;;;11.95;8.90;;;0.50;99.90;;;;;;5039488;28;20088;-61
2023/01/22 09:38:34;;;;;;;13.75;9.18;;;0.60;99.90;;;;;;5045577;28;20630;-61
2023/01/22 09:41:03;;;;;;;12.68;9.25;;;0.50;99.90;;;;;;5042076;28;20057;-62
2023/01/22 09:43:36;;;;;;;15.32;9.30;;;0.50;99.90;;;;;;5043178;28;20056;-60
2023/01/22 09:46:24;;;;;;;13.63;9.18;;;0.60;99.90;;;;;;5044801;28;20053;-60
2023/01/22 09:48:54;;;;;;;11.90;8.30;;;0.50;99.90;;;;;;5042338;28;20048;-61
2023/01/22 09:51:21;;;;;;;14.00;9.43;;;0.60;99.90;;;;;;5043137;28;20065;-61
2023/01/22 09:53:55;;;;;;;13.60;9.30;;;0.60;99.90;;;;;;5024620;28;20045;-60
2023/01/22 09:56:26;;;;;;;10.93;8.32;;;0.70;99.90;;;;;;5043015;28;20058;-61
2023/01/22 09:58:54;;;;;;;13.50;9.20;;;0.70;99.90;;;;;;5043767;28;20057;-61
2023/01/22 10:01:20;;;;;;;18.67;9.70;;;0.70;99.90;;;;;;5041305;28;20057;-61
2023/01/22 10:03:51;;;;;;;12.93;8.68;;;0.70;99.90;;;;;;5044443;28;20575;-61
2023/01/22 10:06:22;;;;;;;13.48;8.95;;;0.70;99.90;;;;;;5047193;28;20596;-62
2023/01/22 10:09:14;;;;;;;12.10;8.05;;;0.80;99.90;;;;;;5048567;28;20067;-61
2023/01/22 10:11:44;;;;;;;14.43;8.77;;;0.80;99.90;;;;;;5042378;28;20053;-60
2023/01/22 10:14:16;;;;;;;13.18;9.68;;;0.90;99.90;;;;;;5046513;28;20044;-62
2023/01/22 10:16:42;;;;;;;11.73;8.10;;;0.80;99.90;;;;;;5046461;28;20060;-62
2023/01/22 10:19:10;;;;;;;13.73;8.48;;;0.80;99.90;;;;;;5040006;28;20037;-61
2023/01/22 10:21:49;;;;;;;12.13;8.27;;;0.90;99.90;;;;;;5045616;28;20048;-60
2023/01/22 10:24:15;;;;;;;13.98;9.57;;;1.00;99.90;;;;;;5044081;28;20057;-60
2023/01/22 10:26:53;;;;;;;12.18;8.45;;;1.00;99.90;;;;;;5047134;28;21282;-62
2023/01/22 10:29:30;;;;;;;14.18;8.52;;;0.90;99.90;;;;;;5047040;28;20091;-62
2023/01/22 10:32:02;;;;;;;13.55;8.23;;;0.90;99.90;;;;;;5046691;28;20149;-62
2023/01/22 10:34:31;;;;;;;11.80;8.23;;;0.90;99.90;;;;;;5050585;28;20469;-61
2023/01/22 10:37:03;;;;;;;11.05;7.75;;;0.90;99.90;;;;;;5044115;28;20480;-61
2023/01/22 10:39:42;;;;;;;14.18;9.20;;;1.00;99.90;;;;;;5047971;28;20143;-61
2023/01/22 10:42:20;;;;;;;13.23;8.68;;;1.00;99.90;;;;;;5048816;28;20041;-61
2023/01/22 10:44:46;;;;;;;13.27;8.20;;;1.00;99.90;;;;;;5045228;28;20053;-60
2023/01/22 10:47:21;;;;;;;12.43;8.40;;;1.00;99.90;;;;;;5039103;28;20069;-60
2023/01/22 10:49:47;;;;;;;11.45;7.47;;;1.00;99.90;;;;;;5041935;28;20127;-61
2023/01/22 10:52:36;;;;;;;11.73;8.80;;;1.00;99.90;;;;;;5047601;28;20050;-61
2023/01/22 10:55:03;;;;;;;10.75;7.35;;;1.10;99.90;;;;;;5046039;28;20050;-62
2023/01/22 10:57:33;;;;;;;11.00;8.10;;;1.10;99.90;;;;;;5049092;28;20037;-61
2023/01/22 11:00:14;;;;;;;12.43;8.55;;;1.10;99.90;;;;;;5050258;28;20490;-60
2023/01/22 11:02:42;;;;;;;10.75;7.68;;;1.20;99.90;;;;;;5048517;28;20320;-61
2023/01/22 11:05:19;;;;;;;12.85;7.85;;;1.20;99.90;;;;;;5046283;28;20056;-61
2023/01/22 11:07:48;;;;;;;10.75;7.45;;;1.20;99.90;;;;;;5048580;28;20053;-61
2023/01/22 11:10:44;;;;;;;10.95;7.60;;;1.20;99.90;;;;;;5030922;28;20128;-61
2023/01/22 11:13:28;;;;;;;11.80;7.88;;;1.20;99.90;;;;;;5050023;28;20664;-61
2023/01/22 11:16:21;;;;;;;10.27;7.45;;;1.20;99.90;;;;;;5045434;28;20052;-62
2023/01/22 11:19:02;;;;;;;9.95;7.57;;;1.20;99.90;;;;;;5042986;28;20048;-62
2023/01/22 11:21:33;;;;;;;11.48;8.48;;;1.20;99.90;;;;;;5045312;28;20068;-61
2023/01/22 11:24:03;;;;;;;10.40;7.70;;;1.20;99.90;;;;;;5046782;28;20050;-61
2023/01/22 11:26:58;;;;;;;12.68;7.88;;;1.20;99.90;;;;;;5047046;28;20559;-63
2023/01/22 11:29:27;;;;;;;10.98;7.57;;;1.10;99.90;;;;;;5047498;28;20060;-61
2023/01/22 11:32:38;;;;;;;13.50;7.68;;;1.10;99.90;;;;;;5048215;28;20056;-61
2023/01/22 11:35:04;;;;;;;11.05;7.53;;;1.10;99.90;;;;;;5040127;28;20562;-62
2023/01/22 11:37:53;;;;;;;12.43;8.20;;;1.10;99.90;;;;;;5042808;28;20113;-60
2023/01/22 11:40:34;;;;;;;12.73;8.00;;;1.20;99.90;;;;;;5046380;28;20047;-62
2023/01/22 11:43:12;;;;;;;11.05;7.63;;;1.10;99.90;;;;;;5046301;28;20071;-60
2023/01/22 11:45:53;;;;;;;14.32;7.00;;;1.20;99.90;;;;;;5039566;28;20104;-60
2023/01/22 11:48:33;;;;;;;16.02;10.70;;;1.20;99.90;;;;;;5046522;28;20109;-61
2023/01/22 11:51:27;;;;;;;12.43;8.60;;;1.20;99.90;;;;;;5046977;28;20036;-60
2023/01/22 11:54:24;;;;;;;10.80;8.02;;;1.30;99.90;;;;;;5046701;28;20048;-61
2023/01/22 11:57:18;;;;;;;11.80;8.38;;;1.30;99.90;;;;;;5046927;28;20072;-62
2023/01/22 11:59:56;;;;;;;13.38;8.57;;;1.40;99.90;;;;;;5041633;28;20069;-60
2023/01/22 12:02:48;;;;;;;12.70;8.82;;;1.40;99.90;;;;;;5043037;28;20045;-60
2023/01/22 12:05:28;;;;;;;9.68;7.32;;;1.40;99.90;;;;;;5049057;28;20049;-60
2023/01/22 12:08:13;;;;;;;11.70;7.85;;;1.50;99.90;;;;;;5047328;28;20053;-60
2023/01/22 12:11:00;;;;;;;12.38;7.47;;;1.50;99.90;;;;;;5044936;28;20053;-61
2023/01/22 12:14:10;;;;;;;11.85;8.65;;;1.50;99.90;;;;;;5048691;28;20045;-61
2023/01/22 12:16:56;;;;;;;12.48;8.63;;;1.50;99.90;;;;;;5047571;28;20061;-61
2023/01/22 12:19:43;;;;;;;12.07;6.97;;;1.50;99.90;;;;;;5046808;28;20044;-60
2023/01/22 12:22:25;;;;;;;12.95;8.00;;;1.60;99.90;;;;;;5046928;28;20045;-60
2023/01/22 12:25:20;;;;;;;15.85;10.05;;;1.60;99.90;;;;;;5043740;28;20048;-61
2023/01/22 12:28:08;;;;;;;14.73;9.63;;;1.60;99.90;;;;;;5043702;28;20095;-62
2023/01/22 12:31:04;;;;;;;12.85;8.65;;;1.70;99.90;;;;;;5044836;28;20535;-61
2023/01/22 12:33:37;;;;;;;16.00;11.32;;;1.70;99.90;;;;;;5041181;28;20057;-60
2023/01/22 12:36:05;;;;;;;27.13;17.35;;;1.70;99.90;;;;;;5046220;28;20044;-61
2023/01/22 12:38:30;;;;;;;14.13;8.60;;;1.60;99.90;;;;;;5048593;28;20056;-61
2023/01/22 12:41:11;;;;;;;13.77;9.50;;;1.60;99.90;;;;;;5046623;28;20065;-62
2023/01/22 12:43:49;;;;;;;13.40;10.52;;;1.60;99.90;;;;;;5047451;28;20152;-62
2023/01/22 12:46:37;;;;;;;15.73;11.13;;;1.60;99.90;;;;;;5042726;28;20041;-62
2023/01/22 12:49:07;;;;;;;20.02;13.23;;;1.60;99.90;;;;;;5036405;28;20044;-61
2023/01/22 12:51:40;;;;;;;12.95;8.88;;;1.60;99.90;;;;;;5043273;28;20041;-61
2023/01/22 12:54:27;;;;;;;22.58;14.77;;;1.70;99.90;;;;;;5045265;28;20091;-60
2023/01/22 12:57:10;;;;;;;16.23;9.85;;;1.70;99.90;;;;;;5038186;28;20041;-60
2023/01/22 12:59:35;;;;;;;12.55;8.93;;;2.00;99.90;;;;;;5039859;28;20048;-61
2023/01/22 13:02:04;;;;;;;13.57;9.57;;;1.80;99.90;;;;;;5038528;28;20586;-61